createdAt,value
2018-05-21T00:01:01.889Z,13.5
2018-05-21T00:02:09.114Z,13.5
2018-05-21T00:03:16.325Z,13.6
2018-05-21T00:04:23.533Z,13.7
2018-05-21T00:05:30.749Z,13.7
2018-05-21T00:06:37.964Z,13.7
2018-05-21T00:07:45.177Z,13.7
2018-05-21T00:08:51.574Z,13.6
2018-05-21T00:09:58.780Z,13.6
2018-05-21T00:11:05.988Z,13.6
2018-05-21T00:12:13.197Z,13.6
2018-05-21T00:13:20.427Z,13.6
2018-05-21T00:14:27.630Z,13.7
2018-05-21T00:15:34.882Z,13.7
2018-05-21T00:16:42.201Z,13.6
2018-05-21T00:17:49.163Z,13.7
2018-05-21T00:18:56.367Z,13.7
2018-05-21T00:20:03.597Z,13.8
2018-05-21T00:21:11.030Z,13.8
2018-05-21T00:22:18.187Z,13.8
2018-05-21T00:23:25.120Z,13.9
2018-05-21T00:24:32.328Z,13.9
2018-05-21T00:25:39.557Z,13.9
2018-05-21T00:26:46.764Z,13.9
2018-05-21T00:27:53.973Z,13.8
2018-05-21T00:29:01.185Z,13.8
2018-05-21T00:30:08.407Z,13.8
2018-05-21T00:31:15.621Z,13.8
2018-05-21T00:32:22.826Z,13.8
2018-05-21T00:33:30.037Z,14
2018-05-21T00:34:37.245Z,14
2018-05-21T00:35:44.478Z,14
2018-05-21T00:36:51.708Z,14
2018-05-21T00:37:58.921Z,13.9
2018-05-21T00:39:06.129Z,13.9
2018-05-21T00:40:13.059Z,13.8
2018-05-21T00:41:20.272Z,13.8
2018-05-21T00:42:27.722Z,13.8
2018-05-21T00:43:34.934Z,13.8
2018-05-21T00:44:41.865Z,13.8
2018-05-21T00:45:48.802Z,13.9
2018-05-21T00:46:56.006Z,13.9
2018-05-21T00:48:02.941Z,13.9
2018-05-21T00:49:10.378Z,13.9
2018-05-21T00:50:17.444Z,13.9
2018-05-21T00:51:24.845Z,13.8
2018-05-21T00:52:32.085Z,13.8
2018-05-21T00:53:39.269Z,13.7
2018-05-21T00:54:46.491Z,13.6
2018-05-21T00:55:53.717Z,13.6
2018-05-21T00:57:00.931Z,13.6
2018-05-21T00:58:08.163Z,13.7
2018-05-21T00:59:15.369Z,13.7
2018-05-21T01:00:22.339Z,13.9
2018-05-21T01:01:29.552Z,13.9
2018-05-21T01:02:36.509Z,13.9
2018-05-21T01:03:43.725Z,13.8
2018-05-21T01:04:50.667Z,13.8
2018-05-21T01:05:57.881Z,13.8
2018-05-21T01:07:04.817Z,13.8
2018-05-21T01:08:12.025Z,13.8
2018-05-21T01:09:19.257Z,13.7
2018-05-21T01:10:26.192Z,13.7
2018-05-21T01:11:33.520Z,13.9
2018-05-21T01:12:40.474Z,13.8
2018-05-21T01:13:47.706Z,13.9
2018-05-21T01:14:54.913Z,13.9
2018-05-21T01:16:01.865Z,14
2018-05-21T01:17:09.076Z,13.9
2018-05-21T01:18:16.522Z,13.9
2018-05-21T01:19:23.459Z,13.9
2018-05-21T01:20:30.617Z,13.9
2018-05-21T01:21:37.838Z,13.9
2018-05-21T01:22:44.794Z,13.9
2018-05-21T01:23:52.006Z,13.9
2018-05-21T01:24:59.212Z,13.9
2018-05-21T01:26:06.422Z,13.9
2018-05-21T01:27:13.635Z,13.9
2018-05-21T01:28:20.839Z,13.9
2018-05-21T01:29:28.067Z,13.8
2018-05-21T01:30:35.281Z,13.8
2018-05-21T01:31:42.486Z,13.8
2018-05-21T01:32:49.696Z,13.8
2018-05-21T01:33:56.895Z,13.8
2018-05-21T01:35:04.105Z,13.7
2018-05-21T01:36:11.309Z,13.7
2018-05-21T01:37:18.246Z,13.7
2018-05-21T01:38:25.448Z,13.7
2018-05-21T01:39:32.659Z,13.7
2018-05-21T01:40:39.596Z,13.7
2018-05-21T01:41:46.800Z,13.8
2018-05-21T01:42:54.011Z,13.9
2018-05-21T01:44:01.227Z,13.8
2018-05-21T01:45:08.165Z,13.9
2018-05-21T01:46:15.111Z,13.8
2018-05-21T01:47:22.328Z,13.8
2018-05-21T01:48:28.993Z,13.7
2018-05-21T01:49:35.925Z,13.7
2018-05-21T01:50:42.857Z,13.7
2018-05-21T01:51:50.058Z,13.7
2018-05-21T01:52:56.725Z,13.7
2018-05-21T01:54:03.930Z,13.7
2018-05-21T01:55:11.159Z,13.7
2018-05-21T01:56:18.370Z,13.7
2018-05-21T01:57:25.580Z,13.7
2018-05-21T01:58:32.787Z,13.7
2018-05-21T01:59:40.017Z,13.7
2018-05-21T02:00:46.959Z,13.7
2018-05-21T02:01:54.167Z,13.7
2018-05-21T02:03:01.378Z,13.7
2018-05-21T02:04:08.306Z,13.7
2018-05-21T02:05:15.522Z,13.7
2018-05-21T02:06:22.735Z,13.7
2018-05-21T02:07:29.663Z,13.7
2018-05-21T02:08:36.968Z,13.7
2018-05-21T02:09:43.983Z,13.7
2018-05-21T02:10:51.193Z,13.7
2018-05-21T02:11:58.402Z,13.6
2018-05-21T02:13:05.610Z,13.7
2018-05-21T02:14:12.535Z,13.7
2018-05-21T02:15:19.741Z,13.6
2018-05-21T02:16:26.945Z,13.6
2018-05-21T02:17:34.156Z,13.7
2018-05-21T02:18:41.377Z,13.7
2018-05-21T02:19:48.310Z,13.6
2018-05-21T02:20:55.517Z,13.6
2018-05-21T02:22:02.734Z,13.6
2018-05-21T02:23:09.943Z,13.6
2018-05-21T02:24:16.889Z,13.5
2018-05-21T02:25:24.099Z,13.5
2018-05-21T02:26:31.024Z,13.5
2018-05-21T02:27:38.233Z,13.5
2018-05-21T02:28:45.175Z,13.5
2018-05-21T02:29:52.377Z,13.5
2018-05-21T02:30:59.592Z,13.4
2018-05-21T02:32:06.806Z,13.4
2018-05-21T02:33:13.743Z,13.4
2018-05-21T02:34:20.969Z,13.4
2018-05-21T02:35:28.163Z,13.4
2018-05-21T02:36:35.104Z,13.4
2018-05-21T02:37:42.310Z,13.4
2018-05-21T02:38:49.531Z,13.4
2018-05-21T02:39:56.734Z,13.3
2018-05-21T02:41:03.945Z,13.3
2018-05-21T02:42:11.148Z,13.3
2018-05-21T02:43:18.362Z,13.3
2018-05-21T02:44:25.571Z,13.3
2018-05-21T02:45:32.774Z,13.3
2018-05-21T02:46:39.983Z,13.3
2018-05-21T02:47:47.192Z,13.3
2018-05-21T02:48:54.394Z,13.3
2018-05-21T02:50:01.332Z,13.2
2018-05-21T02:51:08.630Z,13.3
2018-05-21T02:52:15.835Z,13.3
2018-05-21T02:53:23.041Z,13.3
2018-05-21T02:54:30.255Z,13.2
2018-05-21T02:55:37.475Z,13.2
2018-05-21T02:56:44.159Z,13.2
2018-05-21T02:57:51.360Z,13.2
2018-05-21T02:58:58.569Z,13.2
2018-05-21T03:00:05.883Z,13.3
2018-05-21T03:01:13.086Z,13.3
2018-05-21T03:02:20.294Z,13.3
2018-05-21T03:03:27.518Z,13.3
2018-05-21T03:04:34.721Z,13.3
2018-05-21T03:05:41.979Z,13.3
2018-05-21T03:06:49.184Z,13.3
2018-05-21T03:07:56.411Z,13.3
2018-05-21T03:09:03.622Z,13.2
2018-05-21T03:10:10.829Z,13.2
2018-05-21T03:11:18.037Z,13.2
2018-05-21T03:12:24.972Z,13.2
2018-05-21T03:13:32.172Z,13.2
2018-05-21T03:14:39.378Z,13.2
2018-05-21T03:15:46.594Z,13.3
2018-05-21T03:16:53.806Z,13.2
2018-05-21T03:18:01.012Z,13.2
2018-05-21T03:19:08.225Z,13.3
2018-05-21T03:20:15.431Z,13.3
2018-05-21T03:21:37.290Z,13.3
2018-05-21T03:22:44.498Z,13.3
2018-05-21T03:23:51.709Z,13.2
2018-05-21T03:24:58.913Z,13.2
2018-05-21T03:26:06.121Z,13.2
2018-05-21T03:27:12.777Z,13.2
2018-05-21T03:28:19.987Z,13.3
2018-05-21T03:29:27.214Z,13.3
2018-05-21T03:30:34.151Z,13.3
2018-05-21T03:31:41.591Z,13.3
2018-05-21T03:32:48.792Z,13.3
2018-05-21T03:33:56.038Z,13.2
2018-05-21T03:35:02.962Z,13.3
2018-05-21T03:36:09.914Z,13.3
2018-05-21T03:37:17.123Z,13.3
2018-05-21T03:38:24.330Z,13.2
2018-05-21T03:39:31.543Z,13.2
2018-05-21T03:40:38.755Z,13.3
2018-05-21T03:41:45.966Z,13.3
2018-05-21T03:42:52.893Z,13.2
2018-05-21T03:44:00.104Z,13.2
2018-05-21T03:45:07.308Z,13.2
2018-05-21T03:46:14.522Z,13.3
2018-05-21T03:47:21.451Z,13.3
2018-05-21T03:48:28.393Z,13.4
2018-05-21T03:49:35.626Z,13.4
2018-05-21T03:50:42.632Z,13.4
2018-05-21T03:51:49.857Z,13.4
2018-05-21T03:52:57.056Z,13.4
2018-05-21T03:54:04.278Z,13.4
2018-05-21T03:55:11.488Z,13.3
2018-05-21T03:56:18.418Z,13.3
2018-05-21T03:57:25.630Z,13.3
2018-05-21T03:58:32.836Z,13.3
2018-05-21T03:59:40.046Z,13.3
2018-05-21T04:00:47.252Z,13.4
2018-05-21T04:01:54.467Z,13.4
2018-05-21T04:03:01.389Z,13.4
2018-05-21T04:04:08.597Z,13.4
2018-05-21T04:05:15.800Z,13.3
2018-05-21T04:06:23.013Z,13.4
2018-05-21T04:07:30.219Z,13.4
2018-05-21T04:08:37.168Z,13.4
2018-05-21T04:09:44.373Z,13.4
2018-05-21T04:10:51.308Z,13.4
2018-05-21T04:11:58.644Z,13.4
2018-05-21T04:13:05.966Z,13.4
2018-05-21T04:14:13.180Z,13.4
2018-05-21T04:15:20.403Z,13.4
2018-05-21T04:16:27.337Z,13.4
2018-05-21T04:17:34.262Z,13.4
2018-05-21T04:18:41.523Z,13.5
2018-05-21T04:19:48.831Z,13.5
2018-05-21T04:20:56.037Z,13.5
2018-05-21T04:22:03.242Z,13.5
2018-05-21T04:23:09.910Z,13.5
2018-05-21T04:24:17.113Z,13.5
2018-05-21T04:25:24.321Z,13.4
2018-05-21T04:26:31.542Z,13.5
2018-05-21T04:27:38.751Z,13.4
2018-05-21T04:28:45.964Z,13.4
2018-05-21T04:29:53.173Z,13.5
2018-05-21T04:31:00.123Z,13.5
2018-05-21T04:32:07.326Z,13.5
2018-05-21T04:33:14.539Z,13.5
2018-05-21T04:34:21.194Z,13.4
2018-05-21T04:35:28.422Z,13.4
2018-05-21T04:36:35.626Z,13.5
2018-05-21T04:37:42.556Z,13.5
2018-05-21T04:38:49.781Z,13.5
2018-05-21T04:39:56.981Z,13.5
2018-05-21T04:41:04.187Z,13.5
2018-05-21T04:42:11.395Z,13.5
2018-05-21T04:43:18.601Z,13.5
2018-05-21T04:44:25.824Z,13.5
2018-05-21T04:45:33.032Z,13.6
2018-05-21T04:46:39.964Z,13.6
2018-05-21T04:47:47.178Z,13.6
2018-05-21T04:48:54.657Z,13.6
2018-05-21T04:50:01.881Z,13.6
2018-05-21T04:51:08.830Z,13.6
2018-05-21T04:52:15.763Z,13.7
2018-05-21T04:53:22.695Z,13.7
2018-05-21T04:54:29.906Z,13.7
2018-05-21T04:55:37.129Z,13.7
2018-05-21T04:56:44.333Z,13.7
2018-05-21T04:57:51.549Z,13.8
2018-05-21T04:58:58.752Z,13.8
2018-05-21T05:00:05.688Z,13.9
2018-05-21T05:01:12.898Z,13.9
2018-05-21T05:02:34.759Z,13.9
2018-05-21T05:03:41.966Z,13.9
2018-05-21T05:04:49.253Z,13.9
2018-05-21T05:05:56.179Z,14
2018-05-21T05:07:03.390Z,14
2018-05-21T05:08:10.316Z,14
2018-05-21T05:09:17.526Z,14
2018-05-21T05:10:24.455Z,14
2018-05-21T05:11:31.665Z,14
2018-05-21T05:12:38.869Z,14
2018-05-21T05:13:45.800Z,14
2018-05-21T05:14:53.002Z,14.1
2018-05-21T05:16:00.225Z,14.1
2018-05-21T05:17:07.183Z,14.2
2018-05-21T05:18:14.407Z,14.2
2018-05-21T05:19:21.646Z,14.2
2018-05-21T05:20:28.848Z,14.2
2018-05-21T05:21:36.071Z,14.2
2018-05-21T05:22:43.276Z,14.3
2018-05-21T05:23:50.486Z,14.3
2018-05-21T05:24:57.700Z,14.4
2018-05-21T05:26:04.903Z,14.4
2018-05-21T05:27:11.835Z,14.5
2018-05-21T05:28:19.043Z,14.5
2018-05-21T05:29:26.260Z,14.6
2018-05-21T05:30:33.485Z,14.6
2018-05-21T05:31:40.699Z,14.7
2018-05-21T05:32:47.907Z,14.8
2018-05-21T05:33:54.858Z,14.9
2018-05-21T05:35:02.072Z,14.9
2018-05-21T05:36:09.483Z,15
2018-05-21T05:37:16.421Z,15.1
2018-05-21T05:38:23.352Z,15.1
2018-05-21T05:39:30.552Z,15.2
2018-05-21T05:40:37.769Z,15.2
2018-05-21T05:41:44.973Z,15.3
2018-05-21T05:42:52.316Z,15.3
2018-05-21T05:43:59.537Z,15.4
2018-05-21T05:45:06.749Z,15.5
2018-05-21T05:46:13.981Z,15.6
2018-05-21T05:47:21.193Z,15.6
2018-05-21T05:48:28.410Z,15.7
2018-05-21T05:49:35.621Z,16
2018-05-21T05:50:42.836Z,16.1
2018-05-21T05:51:49.790Z,16.2
2018-05-21T05:52:57.001Z,16.3
2018-05-21T05:54:04.215Z,16.3
2018-05-21T05:55:11.421Z,16.3
2018-05-21T05:56:18.634Z,16.3
2018-05-21T05:57:25.841Z,16.4
2018-05-21T05:58:33.063Z,16.5
2018-05-21T05:59:40.270Z,16.5
2018-05-21T06:00:47.483Z,16.7
2018-05-21T06:01:54.692Z,16.9
2018-05-21T06:03:01.901Z,17
2018-05-21T06:04:09.106Z,17.2
2018-05-21T06:05:16.324Z,17.4
2018-05-21T06:06:23.533Z,17.4
2018-05-21T06:07:30.490Z,17.4
2018-05-21T06:08:37.699Z,17.5
2018-05-21T06:09:44.923Z,17.4
2018-05-21T06:10:52.153Z,17.3
2018-05-21T06:11:59.353Z,17.4
2018-05-21T06:13:06.369Z,17.6
2018-05-21T06:14:13.610Z,17.6
2018-05-21T06:15:20.841Z,17.6
2018-05-21T06:16:28.072Z,17.7
2018-05-21T06:17:35.287Z,17.8
2018-05-21T06:18:42.500Z,17.9
2018-05-21T06:19:49.720Z,18
2018-05-21T06:20:56.929Z,18.1
2018-05-21T06:22:04.149Z,18.2
2018-05-21T06:23:11.362Z,18
2018-05-21T06:24:18.583Z,17.9
2018-05-21T06:25:25.525Z,18
2018-05-21T06:26:32.735Z,17.8
2018-05-21T06:27:39.970Z,18
2018-05-21T06:28:46.899Z,18.1
2018-05-21T06:29:54.110Z,18
2018-05-21T06:31:01.318Z,17.9
2018-05-21T06:32:08.560Z,17.9
2018-05-21T06:33:15.780Z,17.7
2018-05-21T06:34:23.269Z,17.9
2018-05-21T06:35:30.924Z,17.7
2018-05-21T06:36:38.143Z,17.9
2018-05-21T06:37:45.557Z,18.2
2018-05-21T06:38:52.545Z,18.5
2018-05-21T06:39:59.475Z,18.6
2018-05-21T06:41:06.544Z,18.5
2018-05-21T06:42:13.796Z,18.6
2018-05-21T06:43:20.731Z,18.9
2018-05-21T06:44:27.947Z,18.8
2018-05-21T06:45:35.164Z,18.5
2018-05-21T06:46:42.383Z,18.8
2018-05-21T06:47:49.720Z,19.1
2018-05-21T06:48:57.356Z,18.5
2018-05-21T06:50:04.293Z,18.6
2018-05-21T06:51:11.516Z,18.8
2018-05-21T06:52:18.456Z,19
2018-05-21T06:53:25.661Z,18.9
2018-05-21T06:54:32.889Z,19.1
2018-05-21T06:55:40.101Z,19.3
2018-05-21T06:56:47.333Z,19.6
2018-05-21T06:57:54.547Z,19.7
2018-05-21T06:59:01.789Z,19.8
2018-05-21T07:00:08.734Z,19.8
2018-05-21T07:01:15.979Z,19.8
2018-05-21T07:02:23.208Z,19.9
2018-05-21T07:03:30.429Z,20
2018-05-21T07:04:37.634Z,19.7
2018-05-21T07:05:44.845Z,19.7
2018-05-21T07:06:52.057Z,19.9
2018-05-21T07:07:59.409Z,19.6
2018-05-21T07:09:06.635Z,19.5
2018-05-21T07:10:13.855Z,19.6
2018-05-21T07:11:21.069Z,19.7
2018-05-21T07:12:28.009Z,19.6
2018-05-21T07:13:35.243Z,19.8
2018-05-21T07:14:42.464Z,19.4
2018-05-21T07:15:49.684Z,19.3
2018-05-21T07:16:56.636Z,19.6
2018-05-21T07:18:03.864Z,19.7
2018-05-21T07:19:11.097Z,19.8
2018-05-21T07:20:18.318Z,19.7
2018-05-21T07:21:25.766Z,19.9
2018-05-21T07:22:32.964Z,20.2
2018-05-21T07:23:40.175Z,20.4
2018-05-21T07:24:47.392Z,20.5
2018-05-21T07:25:54.613Z,20.6
2018-05-21T07:27:01.609Z,20.6
2018-05-21T07:28:08.822Z,20.7
2018-05-21T07:29:16.042Z,20.7
2018-05-21T07:30:23.264Z,20.6
2018-05-21T07:31:30.566Z,20.7
2018-05-21T07:32:37.893Z,20.8
2018-05-21T07:33:45.113Z,20.9
2018-05-21T07:34:52.331Z,20.7
2018-05-21T07:35:59.562Z,20.9
2018-05-21T07:37:07.014Z,21.1
2018-05-21T07:38:14.217Z,21
2018-05-21T07:39:21.429Z,20.8
2018-05-21T07:40:28.363Z,21
2018-05-21T07:41:35.828Z,21.1
2018-05-21T07:42:42.748Z,20.8
2018-05-21T07:43:49.961Z,21
2018-05-21T07:44:57.095Z,21.2
2018-05-21T07:46:04.483Z,21.1
2018-05-21T07:47:11.696Z,21.2
2018-05-21T07:48:18.912Z,21.5
2018-05-21T07:49:26.138Z,21.2
2018-05-21T07:50:33.353Z,21.3
2018-05-21T07:51:40.730Z,21.4
2018-05-21T07:52:48.341Z,21.6
2018-05-21T07:53:55.556Z,21.7
2018-05-21T07:55:02.771Z,21.9
2018-05-21T07:56:09.703Z,21.8
2018-05-21T07:57:16.917Z,21.8
2018-05-21T07:58:24.127Z,22
2018-05-21T07:59:31.347Z,22.1
2018-05-21T08:00:38.562Z,22.2
2018-05-21T08:01:45.781Z,22.3
2018-05-21T08:02:53.002Z,22.3
2018-05-21T08:04:00.295Z,22.1
2018-05-21T08:05:07.504Z,22.3
2018-05-21T08:06:14.805Z,22
2018-05-21T08:07:22.021Z,22.2
2018-05-21T08:08:29.234Z,22.1
2018-05-21T08:09:36.454Z,22.4
2018-05-21T08:10:43.700Z,22.8
2018-05-21T08:11:50.943Z,23.1
2018-05-21T08:12:58.160Z,23.1
2018-05-21T08:14:05.373Z,23.1
2018-05-21T08:15:12.588Z,23
2018-05-21T08:16:19.807Z,23
2018-05-21T08:17:26.749Z,23
2018-05-21T08:18:33.698Z,23
2018-05-21T08:19:40.911Z,23
2018-05-21T08:20:48.128Z,22.8
2018-05-21T08:21:55.344Z,22.9
2018-05-21T08:23:02.563Z,23
2018-05-21T08:24:09.771Z,22.8
2018-05-21T08:25:16.730Z,22.8
2018-05-21T08:26:23.946Z,23
2018-05-21T08:27:31.174Z,22.6
2018-05-21T08:28:38.390Z,22.4
2018-05-21T08:29:45.621Z,22.6
2018-05-21T08:30:52.839Z,22.8
2018-05-21T08:32:00.068Z,23
2018-05-21T08:33:07.289Z,23
2018-05-21T08:34:14.511Z,22.9
2018-05-21T08:35:21.731Z,22.5
2018-05-21T08:36:28.939Z,22.1
2018-05-21T08:37:36.163Z,22.5
2018-05-21T08:38:43.380Z,23
2018-05-21T08:39:50.598Z,23.3
2018-05-21T08:40:57.540Z,23.7
2018-05-21T08:42:04.750Z,23.8
2018-05-21T08:43:11.969Z,23.6
2018-05-21T08:44:19.192Z,23.6
2018-05-21T08:45:26.405Z,23.6
2018-05-21T08:46:33.635Z,23.4
2018-05-21T08:47:40.853Z,23.4
2018-05-21T08:48:48.534Z,23.6
2018-05-21T08:49:55.994Z,23.4
2018-05-21T08:51:03.431Z,23.5
2018-05-21T08:52:10.640Z,23.7
2018-05-21T08:53:17.872Z,23.9
2018-05-21T08:54:25.118Z,23.9
2018-05-21T08:55:32.354Z,23.7
2018-05-21T08:56:39.696Z,23.7
2018-05-21T08:57:46.885Z,23.4
2018-05-21T08:58:54.182Z,23.4
2018-05-21T09:00:01.159Z,23.3
2018-05-21T09:01:08.457Z,23
2018-05-21T09:02:15.675Z,22.9
2018-05-21T09:03:22.891Z,23.2
2018-05-21T09:04:30.109Z,22.8
2018-05-21T09:05:37.336Z,23
2018-05-21T09:06:44.551Z,23.4
2018-05-21T09:07:51.785Z,23.8
2018-05-21T09:08:58.995Z,24.2
2018-05-21T09:10:06.569Z,24.1
2018-05-21T09:11:14.088Z,23.9
2018-05-21T09:12:21.596Z,23.5
2018-05-21T09:13:28.978Z,23.6
2018-05-21T09:14:36.216Z,23.6
2018-05-21T09:15:43.432Z,23.9
2018-05-21T09:16:50.651Z,23.7
2018-05-21T09:17:57.864Z,23.7
2018-05-21T09:19:05.088Z,23.6
2018-05-21T09:20:12.302Z,23.6
2018-05-21T09:21:19.531Z,23.8
2018-05-21T09:22:26.739Z,24.3
2018-05-21T09:23:33.950Z,24.5
2018-05-21T09:24:41.203Z,24.5
2018-05-21T09:25:48.154Z,24.3
2018-05-21T09:26:55.098Z,24.5
2018-05-21T09:28:02.308Z,24.6
2018-05-21T09:29:09.524Z,24.6
2018-05-21T09:30:16.747Z,24.4
2018-05-21T09:31:24.157Z,24.5
2018-05-21T09:32:31.761Z,24.5
2018-05-21T09:35:30.334Z,24.6
2018-05-21T09:36:37.263Z,24.6
2018-05-21T09:37:43.927Z,24.8
2018-05-21T09:38:50.885Z,25
2018-05-21T09:39:58.100Z,25.4
2018-05-21T09:41:05.040Z,25.5
2018-05-21T09:42:12.259Z,25.6
2018-05-21T09:43:19.481Z,25.3
2018-05-21T09:44:26.425Z,25.4
2018-05-21T09:45:33.657Z,25.5
2018-05-21T09:46:40.874Z,25
2018-05-21T09:47:48.097Z,25
2018-05-21T09:48:55.312Z,25.4
2018-05-21T09:50:02.531Z,25.5
2018-05-21T09:51:09.747Z,25.7
2018-05-21T09:52:16.963Z,25.3
2018-05-21T09:53:23.928Z,25.4
2018-05-21T09:54:31.152Z,25.2
2018-05-21T09:55:38.376Z,25.4
2018-05-21T09:56:45.595Z,25.2
2018-05-21T09:57:52.816Z,25.1
2018-05-21T09:58:59.770Z,25.2
2018-05-21T10:00:06.446Z,25.4
2018-05-21T10:01:13.662Z,25.3
2018-05-21T10:02:20.889Z,25.3
2018-05-21T10:03:27.832Z,25.2
2018-05-21T10:04:35.065Z,25.3
2018-05-21T10:05:42.285Z,25.2
2018-05-21T10:06:49.501Z,25.3
2018-05-21T10:07:56.719Z,25.7
2018-05-21T10:09:03.692Z,25.7
2018-05-21T10:10:10.931Z,25.7
2018-05-21T10:11:18.147Z,25.8
2018-05-21T10:12:25.381Z,25.7
2018-05-21T10:13:32.602Z,25.5
2018-05-21T10:14:39.579Z,25.5
2018-05-21T10:15:46.834Z,25.4
2018-05-21T10:16:54.045Z,25
2018-05-21T10:18:01.265Z,25
2018-05-21T10:19:08.487Z,25.1
2018-05-21T10:20:15.708Z,25.5
2018-05-21T10:21:22.923Z,25.8
2018-05-21T10:22:30.146Z,26
2018-05-21T10:23:37.356Z,26
2018-05-21T10:24:44.572Z,26
2018-05-21T10:25:51.791Z,25.2
2018-05-21T10:26:59.006Z,25.4
2018-05-21T10:28:06.004Z,25.6
2018-05-21T10:29:13.223Z,25.9
2018-05-21T10:30:19.660Z,26.4
2018-05-21T10:31:26.876Z,26.4
2018-05-21T10:32:34.095Z,26.3
2018-05-21T10:33:41.334Z,26.5
2018-05-21T10:34:48.574Z,26.4
2018-05-21T10:35:55.797Z,26.4
2018-05-21T10:37:03.102Z,26.6
2018-05-21T10:38:10.249Z,26.8
2018-05-21T10:39:17.478Z,26.8
2018-05-21T10:40:24.707Z,26.4
2018-05-21T10:41:31.662Z,26.7
2018-05-21T10:42:38.880Z,26.9
2018-05-21T10:43:46.253Z,26.6
2018-05-21T10:44:53.595Z,26.3
2018-05-21T10:46:00.816Z,26.3
2018-05-21T10:47:08.031Z,26.5
2018-05-21T10:48:14.995Z,26.6
2018-05-21T10:49:22.257Z,26.6
2018-05-21T10:50:29.491Z,26.8
2018-05-21T10:51:36.719Z,27.3
2018-05-21T10:52:43.939Z,27.2
2018-05-21T10:53:51.163Z,27.1
2018-05-21T10:54:58.382Z,26.7
2018-05-21T10:56:05.694Z,26.7
2018-05-21T10:57:13.079Z,26.6
2018-05-21T10:58:20.305Z,26.1
2018-05-21T10:59:27.533Z,26.1
2018-05-21T11:00:34.557Z,26.2
2018-05-21T11:01:42.006Z,26.5
2018-05-21T11:02:49.419Z,26.4
2018-05-21T11:03:56.651Z,26.1
2018-05-21T11:05:03.867Z,26.1
2018-05-21T11:06:11.094Z,26
2018-05-21T11:07:18.327Z,25.9
2018-05-21T11:08:25.303Z,26.2
2018-05-21T11:09:32.243Z,26.6
2018-05-21T11:10:39.486Z,26.8
2018-05-21T11:11:46.701Z,26.9
2018-05-21T11:12:53.944Z,27
2018-05-21T11:14:01.169Z,26.4
2018-05-21T11:15:08.119Z,26.2
2018-05-21T11:16:15.059Z,26.4
2018-05-21T11:17:22.282Z,26.4
2018-05-21T11:18:29.504Z,26.3
2018-05-21T11:19:36.169Z,26
2018-05-21T11:20:43.380Z,25.7
2018-05-21T11:21:50.601Z,26
2018-05-21T11:22:57.821Z,26.3
2018-05-21T11:24:05.040Z,26.5
2018-05-21T11:25:12.258Z,26.6
2018-05-21T11:26:19.474Z,26.5
2018-05-21T11:27:26.696Z,26.5
2018-05-21T11:28:33.915Z,27.1
2018-05-21T11:29:41.145Z,26.7
2018-05-21T11:30:48.581Z,27
2018-05-21T11:31:55.923Z,27.3
2018-05-21T11:33:03.324Z,27.1
2018-05-21T11:34:10.540Z,27.1
2018-05-21T11:35:17.486Z,27
2018-05-21T11:36:24.409Z,26.7
2018-05-21T11:37:31.623Z,26.7
2018-05-21T11:38:38.863Z,26.5
2018-05-21T11:39:46.082Z,26.2
2018-05-21T11:40:53.042Z,26.3
2018-05-21T11:42:00.269Z,26.2
2018-05-21T11:43:07.493Z,26.3
2018-05-21T11:44:14.711Z,26.7
2018-05-21T11:45:21.658Z,27.2
2018-05-21T11:46:28.924Z,27.3
2018-05-21T11:47:36.182Z,26.5
2018-05-21T11:48:43.411Z,26.3
2018-05-21T11:49:50.626Z,26.5
2018-05-21T11:50:57.849Z,26.5
2018-05-21T11:52:05.066Z,26.4
2018-05-21T11:53:12.014Z,26.3
2018-05-21T11:54:19.240Z,26.5
2018-05-21T11:55:26.189Z,26.9
2018-05-21T11:56:33.409Z,27
2018-05-21T11:57:40.630Z,26.5
2018-05-21T11:58:47.954Z,26.4
2018-05-21T11:59:54.885Z,26.6
2018-05-21T12:01:02.127Z,26.7
2018-05-21T12:02:09.511Z,27.1
2018-05-21T12:03:16.830Z,27.3
2018-05-21T12:04:24.058Z,27.7
2018-05-21T12:05:31.293Z,27.3
2018-05-21T12:06:38.502Z,27.3
2018-05-21T12:07:46.059Z,27.4
2018-05-21T12:08:53.609Z,27.8
2018-05-21T12:10:00.833Z,28.1
2018-05-21T12:11:07.570Z,28.5
2018-05-21T12:12:14.883Z,28.7
2018-05-21T12:13:22.109Z,28.6
2018-05-21T12:14:29.339Z,28.3
2018-05-21T12:15:36.564Z,27.8
2018-05-21T12:16:43.779Z,27.7
2018-05-21T12:17:50.727Z,28.2
2018-05-21T12:18:57.944Z,28.5
2018-05-21T12:20:05.173Z,28.5
2018-05-21T12:21:12.401Z,27.9
2018-05-21T12:22:19.791Z,27.7
2018-05-21T12:23:27.269Z,27.5
2018-05-21T12:24:35.100Z,27.5
2018-05-21T12:25:42.043Z,27.4
2018-05-21T12:26:49.143Z,27.8
2018-05-21T12:27:56.368Z,28
2018-05-21T12:29:03.319Z,28.3
2018-05-21T12:30:10.548Z,28.2
2018-05-21T12:31:17.770Z,28
2018-05-21T12:32:24.993Z,28
2018-05-21T12:33:32.222Z,28.1
2018-05-21T12:34:39.451Z,27.5
2018-05-21T12:35:46.676Z,27.3
2018-05-21T12:36:53.903Z,27.5
2018-05-21T12:38:01.124Z,27.5
2018-05-21T12:39:08.086Z,27.7
2018-05-21T12:40:15.370Z,28.3
2018-05-21T12:41:22.310Z,28.2
2018-05-21T12:42:29.532Z,28
2018-05-21T12:43:36.199Z,27.8
2018-05-21T12:44:43.429Z,28.1
2018-05-21T12:45:50.653Z,28.6
2018-05-21T12:46:58.005Z,29.1
2018-05-21T12:48:05.570Z,28.3
2018-05-21T12:49:12.789Z,28
2018-05-21T12:50:20.017Z,28.1
2018-05-21T12:51:26.979Z,28.3
2018-05-21T12:52:34.215Z,28.5
2018-05-21T12:53:41.434Z,28.5
2018-05-21T12:54:48.532Z,28.8
2018-05-21T12:55:55.917Z,28.7
2018-05-21T12:57:03.136Z,28.5
2018-05-21T12:58:10.357Z,28.7
2018-05-21T12:59:17.592Z,28.7
2018-05-21T13:00:24.819Z,28.8
2018-05-21T13:01:32.066Z,28.5
2018-05-21T13:02:39.024Z,28.7
2018-05-21T13:03:46.238Z,29
2018-05-21T13:04:53.468Z,29.2
2018-05-21T13:06:00.694Z,29.3
2018-05-21T13:07:07.921Z,28.6
2018-05-21T13:08:15.147Z,28.4
2018-05-21T13:09:22.358Z,28.7
2018-05-21T13:10:29.578Z,29.1
2018-05-21T13:11:36.809Z,29.8
2018-05-21T13:12:44.026Z,29.9
2018-05-21T13:13:50.987Z,29.3
2018-05-21T13:14:58.209Z,29.5
2018-05-21T13:16:05.451Z,29.4
2018-05-21T13:17:12.674Z,29.8
2018-05-21T13:18:19.905Z,29.3
2018-05-21T13:19:27.124Z,29.2
2018-05-21T13:20:34.032Z,29.2
2018-05-21T13:21:41.263Z,28.9
2018-05-21T13:22:48.483Z,29.2
2018-05-21T13:23:55.710Z,29.4
2018-05-21T13:25:02.941Z,29.3
2018-05-21T13:26:10.168Z,29.5
2018-05-21T13:27:17.395Z,29.5
2018-05-21T13:28:24.581Z,29.3
2018-05-21T13:29:31.591Z,29.6
2018-05-21T13:30:38.802Z,29.9
2018-05-21T13:31:45.753Z,30.1
2018-05-21T13:32:52.990Z,30.4
2018-05-21T13:34:00.222Z,30.5
2018-05-21T13:35:07.455Z,30.5
2018-05-21T13:36:14.681Z,30.4
2018-05-21T13:37:21.670Z,29.6
2018-05-21T13:38:28.889Z,29.1
2018-05-21T13:39:36.111Z,28.6
2018-05-21T13:40:43.331Z,28.3
2018-05-21T13:41:50.552Z,27.5
2018-05-21T13:42:57.772Z,27.5
2018-05-21T13:44:19.647Z,27.8
2018-05-21T13:45:26.871Z,28.3
2018-05-21T13:46:34.097Z,28.9
2018-05-21T13:47:41.318Z,29.5
2018-05-21T13:48:48.536Z,29.9
2018-05-21T13:49:55.765Z,30.4
2018-05-21T13:51:03.072Z,30.8
2018-05-21T13:52:10.467Z,30.7
2018-05-21T13:53:17.836Z,30.7
2018-05-21T13:54:25.057Z,30.2
2018-05-21T13:55:32.296Z,30
2018-05-21T13:56:39.517Z,29.9
2018-05-21T13:57:47.140Z,29.5
2018-05-21T13:58:54.420Z,29.7
2018-05-21T14:00:01.766Z,30
2018-05-21T14:01:08.994Z,29.4
2018-05-21T14:02:16.216Z,29.2
2018-05-21T22:00:06.790Z,17.7
2018-05-21T22:01:14.002Z,17.7
2018-05-21T22:02:21.214Z,17.7
2018-05-21T22:03:28.646Z,17.7
2018-05-21T22:04:36.094Z,17.6
2018-05-21T22:05:43.302Z,17.6
2018-05-21T22:06:50.569Z,17.5
2018-05-21T22:07:57.766Z,17.5
2018-05-21T22:09:04.982Z,17.5
2018-05-21T22:10:12.189Z,17.5
2018-05-21T22:11:19.400Z,17.5
2018-05-21T22:12:26.609Z,17.5
2018-05-21T22:13:33.818Z,17.5
2018-05-21T22:14:41.039Z,17.5
2018-05-21T22:15:48.245Z,17.5
2018-05-21T22:16:55.472Z,17.5
2018-05-21T22:18:02.410Z,17.5
2018-05-21T22:19:09.632Z,17.4
2018-05-21T22:20:17.242Z,17.4
2018-05-21T22:21:24.483Z,17.4
2018-05-21T22:22:31.695Z,17.4
2018-05-21T22:23:38.920Z,17.4
2018-05-21T22:24:46.132Z,17.4
2018-05-21T22:25:53.345Z,17.3
2018-05-21T22:27:00.561Z,17.3
2018-05-21T22:28:07.515Z,17.3
2018-05-21T22:29:14.718Z,17.3
2018-05-21T22:30:21.924Z,17.3
2018-05-21T22:31:29.142Z,17.3
2018-05-21T22:32:36.081Z,17.2
2018-05-21T22:33:43.307Z,17.2
2018-05-21T22:34:49.965Z,17.1
2018-05-21T22:35:56.895Z,17.1
2018-05-21T22:37:04.103Z,17.1
2018-05-21T22:38:11.310Z,17.1
2018-05-21T22:39:18.526Z,17.1
2018-05-21T22:40:25.739Z,17.1
2018-05-21T22:41:32.964Z,17.1
2018-05-21T22:42:40.176Z,17
2018-05-21T22:43:47.128Z,17
2018-05-21T22:44:54.343Z,17
2018-05-21T22:46:01.553Z,17
2018-05-21T22:47:08.772Z,16.9
2018-05-21T22:48:15.697Z,16.9
2018-05-21T22:49:22.902Z,16.8
2018-05-21T22:50:30.116Z,16.8
2018-05-21T22:51:37.130Z,16.8
2018-05-21T22:52:44.335Z,16.7
2018-05-21T22:53:51.550Z,16.7
2018-05-21T22:54:58.758Z,16.7
2018-05-21T22:56:05.969Z,16.7
2018-05-21T22:57:13.180Z,16.7
2018-05-21T22:58:20.408Z,16.6